ZRH weather

Z├╝rich Airport
Zurich, Canton of Zurich, Switzerland

Public forecast

Using degrees Celsius for public forecast. Weather courtesy of forecast.io.

METAR (pilot weather report)

Retrieved 2017/05/28 14:20 UTC (0 seconds ago):

LSZH 281420Z 36005KT 300V030 9999 FEW065 BKN250 28/12 Q1019 NOSIG

TAF (pilot weather forecast)

Retrieved 2017/05/28 15:34 UTC (0 seconds ago):

TAF LSZH 281425Z 2815/2921 02005KT 9999 FEW065 TX28/2815Z TN13/2904Z TX31/2915Z BECMG 2818/2821 VRB03KT CAVOK